Time;durP1;ratioP1;P1;durP2;ratioP2;P2;SDS_P1;SDS_P2;PMS_P1;PMS_P2;Temp;Humidity;BMP_temperature;BMP_pressure;BME280_temperature;BME280_humidity;BME280_pressure;Samples;Min_cycle;Max_cycle;Signal;HPM_P1;HPM_P2
2022/04/09 00:01:00;;;;;;;1.30;0.60;;;;;;;;;;5076316;28;20220;-89
2022/04/09 00:03:28;;;;;;;0.83;0.73;;;9.70;99.90;;;;;;5076449;28;20177;-89
2022/04/09 00:05:54;;;;;;;0.63;0.60;;;;;;;;;;5078171;28;20178;-91
2022/04/09 00:08:20;;;;;;;1.03;0.63;;;;;;;;;;5077325;28;20642;-90
2022/04/09 00:10:46;;;;;;;1.90;1.37;;;;;;;;;;5094319;28;20649;-89
2022/04/09 00:13:13;;;;;;;2.57;1.03;;;;;;;;;;5076323;28;20198;-90
2022/04/09 00:15:41;;;;;;;1.00;1.00;;;9.50;99.90;;;;;;5076234;28;20173;-89
2022/04/09 00:18:07;;;;;;;1.40;1.10;;;;;;;;;;5076072;28;20170;-88
2022/04/09 00:20:33;;;;;;;1.10;0.80;;;;;;;;;;5076502;28;20170;-88
2022/04/09 00:22:59;;;;;;;1.30;1.00;;;;;;;;;;5076075;28;20656;-89
2022/04/09 00:25:27;;;;;;;1.23;1.00;;;9.50;99.90;;;;;;5076020;28;20184;-89
2022/04/09 00:27:53;;;;;;;1.63;1.10;;;;;;;;;;5076008;28;20185;-89
2022/04/09 00:30:20;;;;;;;1.60;1.17;;;;;;;;;;5094045;28;20181;-90
2022/04/09 00:32:46;;;;;;;1.20;0.93;;;;;;;;;;5075835;28;20193;-91
2022/04/09 00:35:12;;;;;;;1.60;1.00;;;;;;;;;;5076440;28;20633;-90
2022/04/09 00:37:45;;;;;;;2.07;1.20;;;9.40;99.90;;;;;;5075890;28;20173;-89
2022/04/09 00:40:13;;;;;;;3.87;1.10;;;9.60;99.90;;;;;;5075659;28;20169;-89
2022/04/09 00:42:41;;;;;;;1.23;1.00;;;9.50;99.90;;;;;;5076050;28;20178;-90
2022/04/09 00:45:08;;;;;;;1.30;1.10;;;9.30;99.90;;;;;;5075960;28;20657;-90
2022/04/09 00:47:35;;;;;;;0.90;0.90;;;9.50;99.90;;;;;;5075964;28;20181;-88
2022/04/09 00:50:04;;;;;;;1.10;1.00;;;9.30;99.90;;;;;;5075670;28;20170;-90
2022/04/09 00:52:33;;;;;;;0.93;0.70;;;9.40;99.90;;;;;;5075493;28;20226;-88
2022/04/09 00:55:02;;;;;;;1.23;0.70;;;9.40;99.90;;;;;;5075360;28;20677;-88
2022/04/09 00:57:29;;;;;;;0.60;0.60;;;9.30;99.90;;;;;;5075449;28;20177;-90
2022/04/09 00:59:56;;;;;;;1.23;1.00;;;9.20;99.90;;;;;;5075141;28;20178;-89
2022/04/09 01:02:22;;;;;;;0.80;0.70;;;;;;;;;;5075295;28;20622;-90
2022/04/09 01:04:49;;;;;;;1.37;0.50;;;9.50;99.90;;;;;;5075359;28;20174;-88
2022/04/09 01:07:15;;;;;;;0.80;0.73;;;;;;;;;;5074394;28;20250;-88
2022/04/09 01:09:45;;;;;;;0.97;0.73;;;;;;;;;;5074946;28;20173;-88
2022/04/09 01:12:10;;;;;;;1.13;0.70;;;;;;;;;;5075232;28;20277;-88
2022/04/09 01:14:38;;;;;;;1.03;0.60;;;10.10;99.90;;;;;;5075206;28;20292;-88
2022/04/09 01:17:04;;;;;;;0.80;0.60;;;;;;;;;;5075021;28;20173;-88
2022/04/09 01:19:30;;;;;;;0.80;0.80;;;;;;;;;;5074894;28;20211;-89
2022/04/09 01:22:01;;;;;;;0.50;0.50;;;9.90;99.90;;;;;;5075037;28;20197;-88
2022/04/09 01:24:27;;;;;;;1.03;0.73;;;;;;;;;;5075308;28;20173;-88
2022/04/09 01:26:54;;;;;;;0.60;0.60;;;9.80;99.90;;;;;;5075115;28;20565;-88
2022/04/09 01:29:20;;;;;;;0.63;0.60;;;;;;;;;;5075315;28;20177;-90
2022/04/09 01:31:46;;;;;;;1.03;0.70;;;;;;;;;;5075089;28;20179;-90
2022/04/09 01:34:15;;;;;;;1.17;0.80;;;9.70;99.90;;;;;;5074866;28;20312;-89
2022/04/09 01:36:42;;;;;;;2.30;0.70;;;9.70;99.90;;;;;;5075062;28;20182;-90
2022/04/09 01:39:08;;;;;;;2.23;0.90;;;;;;;;;;5075429;28;20174;-89
2022/04/09 01:41:34;;;;;;;1.33;0.80;;;;;;;;;;5075590;28;20174;-91
2022/04/09 01:44:00;;;;;;;1.33;0.70;;;;;;;;;;5075572;28;20177;-90
2022/04/09 01:46:26;;;;;;;0.97;0.83;;;;;;;;;;5075547;28;20633;-92
2022/04/09 01:49:00;;;;;;;1.07;0.73;;;8.90;99.90;;;;;;5075564;28;20224;-89
2022/04/09 01:51:26;;;;;;;0.90;0.80;;;;;;;;;;5075556;28;20177;-89
2022/04/09 01:53:57;;;;;;;1.60;1.00;;;8.90;99.90;;;;;;5075591;28;20565;-91
2022/04/09 01:56:23;;;;;;;0.80;0.80;;;;;;;;;;5075548;28;20259;-90
2022/04/09 01:58:51;;;;;;;1.27;1.10;;;9.30;99.90;;;;;;5075676;28;20626;-91
2022/04/09 02:01:17;;;;;;;1.07;0.80;;;9.70;99.90;;;;;;5075500;28;20227;-90
2022/04/09 02:03:43;;;;;;;1.17;0.40;;;;;;;;;;5074922;28;20208;-90
2022/04/09 02:06:09;;;;;;;1.50;0.60;;;;;;;;;;5075297;28;20552;-88
2022/04/09 02:08:45;;;;;;;0.87;0.40;;;10.50;99.90;;;;;;5075453;28;20177;-90
2022/04/09 02:11:11;;;;;;;0.30;0.30;;;;;;;;;;5075429;28;20180;-89
2022/04/09 02:13:37;;;;;;;0.63;0.40;;;;;;;;;;5074735;28;20259;-91
2022/04/09 02:16:03;;;;;;;0.73;0.40;;;10.00;99.90;;;;;;5074723;28;20633;-89
2022/04/09 02:18:29;;;;;;;1.07;0.50;;;;;;;;;;5077963;28;20174;-91
2022/04/09 02:20:55;;;;;;;0.60;0.50;;;;;;;;;;5078270;28;20178;-90
2022/04/09 02:23:21;;;;;;;0.60;0.50;;;;;;;;;;5079015;28;20182;-92
2022/04/09 02:25:46;;;;;;;1.57;0.57;;;10.30;99.90;;;;;;5078957;28;20173;-90
2022/04/09 02:28:12;;;;;;;0.50;0.50;;;;;;;;;;5078698;28;20185;-91
2022/04/09 02:30:38;;;;;;;1.17;1.07;;;;;;;;;;5078725;28;20174;-90
2022/04/09 02:33:05;;;;;;;1.83;1.10;;;;;;;;;;5077897;28;20213;-89
2022/04/09 02:35:30;;;;;;;1.27;0.90;;;9.10;99.90;;;;;;5078593;28;20222;-91
2022/04/09 02:37:57;;;;;;;1.53;1.10;;;8.90;99.90;;;;;;5078239;28;20268;-91
2022/04/09 02:40:24;;;;;;;1.07;1.07;;;;;;;;;;5078393;28;20764;-89
2022/04/09 02:42:51;;;;;;;1.13;1.10;;;8.70;99.90;;;;;;5077978;28;20223;-88
2022/04/09 02:45:17;;;;;;;2.03;1.20;;;;;;;;;;5077938;28;20173;-90
2022/04/09 02:47:43;;;;;;;1.23;1.20;;;;;;;;;;5078161;28;20181;-90
2022/04/09 02:50:09;;;;;;;1.33;1.20;;;;;;;;;;5078158;28;20593;-90
2022/04/09 02:52:40;;;;;;;1.07;1.00;;;8.10;99.90;;;;;;5077471;28;20587;-90
2022/04/09 02:55:07;;;;;;;0.70;0.70;;;7.90;99.90;;;;;;5077666;28;20182;-91
2022/04/09 02:57:34;;;;;;;0.60;0.60;;;;;;;;;;5077784;28;20169;-92
2022/04/09 03:00:05;;;;;;;0.53;0.53;;;7.80;99.90;;;;;;5077538;28;20622;-92
2022/04/09 03:02:31;;;;;;;0.70;0.70;;;;;;;;;;5077749;28;20174;-91
2022/04/09 03:04:57;;;;;;;0.90;0.90;;;;;;;;;;5077827;28;20209;-91
2022/04/09 03:07:23;;;;;;;0.87;0.70;;;;;;;;;;5077777;28;20173;-90
2022/04/09 03:09:49;;;;;;;1.10;1.10;;;;;;;;;;5077478;28;20165;-93
2022/04/09 03:12:15;;;;;;;1.50;1.40;;;;;;;;;;5077152;28;20210;-91
2022/04/09 03:14:46;;;;;;;1.50;1.40;;;8.20;99.90;;;;;;5077437;28;20213;-91
2022/04/09 03:17:12;;;;;;;1.67;1.57;;;;;;;;;;5077590;28;20174;-94
2022/04/09 03:19:38;;;;;;;5.37;1.80;;;;;;;;;;5077893;28;20641;-93
2022/04/09 03:22:04;;;;;;;1.60;1.50;;;;;;;;;;5077602;28;20201;-92
2022/04/09 03:24:30;;;;;;;1.70;1.60;;;;;;;;;;5078500;28;20174;-92
2022/04/09 03:26:56;;;;;;;1.37;1.37;;;6.50;99.90;;;;;;5077594;28;20644;-92
2022/04/09 03:29:22;;;;;;;0.93;0.93;;;;;;;;;;5077299;28;20178;-92
2022/04/09 03:31:48;;;;;;;1.10;1.10;;;;;;;;;;5094818;22;20226;-48
2022/04/09 03:34:13;;;;;;;1.07;1.07;;;6.20;99.90;;;;;;5072792;28;20627;-48
2022/04/09 03:36:39;;;;;;;1.70;1.60;;;6.50;99.90;;;;;;5073313;28;20162;-52
2022/04/09 03:39:05;;;;;;;1.63;1.63;;;6.30;99.90;;;;;;5073559;28;20167;-52
2022/04/09 03:41:31;;;;;;;1.70;1.60;;;;;;;;;;5073356;28;20689;-51
2022/04/09 03:43:57;;;;;;;1.50;1.50;;;6.20;99.90;;;;;;5073007;28;20201;-46
2022/04/09 03:46:22;;;;;;;1.77;1.70;;;5.60;99.90;;;;;;5073408;28;20590;-47
2022/04/09 03:48:48;;;;;;;1.30;1.30;;;5.80;99.90;;;;;;5073125;28;20179;-50
2022/04/09 03:51:14;;;;;;;1.90;1.80;;;;;;;;;;5073366;28;20190;-49
2022/04/09 03:53:40;;;;;;;1.13;1.13;;;5.50;99.90;;;;;;5068489;28;20256;-47
2022/04/09 03:56:05;;;;;;;2.27;2.07;;;5.70;99.90;;;;;;5061473;28;20179;-46
2022/04/09 03:58:31;;;;;;;1.50;1.50;;;5.80;99.90;;;;;;5058235;28;20179;-51
2022/04/09 04:00:57;;;;;;;1.40;1.30;;;5.80;99.90;;;;;;5062531;28;20720;-50
2022/04/09 04:03:25;;;;;;;1.43;1.43;;;6.30;99.90;;;;;;5068567;28;20193;-47
2022/04/09 04:05:51;;;;;;;1.33;1.03;;;;;;;;;;5055853;28;20190;-51
2022/04/09 04:08:17;;;;;;;1.10;1.10;;;;;;;;;;5066580;28;20552;-50
2022/04/09 04:10:43;;;;;;;1.20;1.20;;;5.90;99.90;;;;;;5062228;28;20182;-45
2022/04/09 04:13:08;;;;;;;0.87;0.87;;;5.80;99.90;;;;;;5058876;28;20537;-47
2022/04/09 04:15:34;;;;;;;0.80;0.80;;;6.00;99.90;;;;;;5064214;28;20178;-48
2022/04/09 04:18:00;;;;;;;1.23;0.70;;;6.10;99.90;;;;;;5062098;28;20285;-54
2022/04/09 04:20:26;;;;;;;0.50;0.50;;;6.20;99.90;;;;;;5061709;28;20179;-51
2022/04/09 04:22:52;;;;;;;0.40;0.40;;;6.00;99.90;;;;;;5062433;28;20222;-47
2022/04/09 04:25:17;;;;;;;0.20;0.20;;;6.30;99.90;;;;;;5065238;28;20205;-52
2022/04/09 04:27:48;;;;;;;0.23;0.23;;;6.20;99.90;;;;;;5069177;28;20182;-48
2022/04/09 04:30:14;;;;;;;0.30;0.30;;;;;;;;;;5063951;28;20257;-52
2022/04/09 04:32:41;;;;;;;0.30;0.30;;;6.20;99.90;;;;;;5067681;28;20285;-52
2022/04/09 04:35:07;;;;;;;0.23;0.23;;;;;;;;;;5052365;28;20684;-50
2022/04/09 04:37:44;;;;;;;0.30;0.30;;;6.20;99.90;;;;;;5063444;28;20635;-54
2022/04/09 04:40:11;;;;;;;0.43;0.40;;;6.80;99.90;;;;;;5063914;28;20182;-47
2022/04/09 04:42:36;;;;;;;0.20;0.20;;;6.30;99.90;;;;;;5054053;28;20187;-47
2022/04/09 04:45:05;;;;;;;1.30;0.30;;;6.40;99.90;;;;;;5069526;28;20197;-47
2022/04/09 04:47:31;;;;;;;0.30;0.30;;;;;;;;;;5070472;28;20194;-52
2022/04/09 04:49:57;;;;;;;0.40;0.40;;;6.10;99.90;;;;;;5071765;28;20201;-46
2022/04/09 04:52:23;;;;;;;0.40;0.40;;;6.10;99.90;;;;;;5070555;28;20198;-49
2022/04/09 04:54:48;;;;;;;0.47;0.47;;;6.20;99.90;;;;;;5071765;28;20194;-52
2022/04/09 04:57:14;;;;;;;0.40;0.40;;;;;;;;;;5072072;28;20182;-54
2022/04/09 04:59:40;;;;;;;1.00;0.60;;;;;;;;;;5071879;28;20175;-55
2022/04/09 05:02:06;;;;;;;0.50;0.50;;;;;;;;;;5071872;28;20193;-51
2022/04/09 05:04:32;;;;;;;0.70;0.70;;;6.10;99.90;;;;;;5071535;28;20197;-49
2022/04/09 05:06:57;;;;;;;0.50;0.50;;;6.00;99.90;;;;;;5071867;28;20643;-50
2022/04/09 05:09:23;;;;;;;0.80;0.80;;;;;;;;;;5071952;28;20536;-48
2022/04/09 05:11:49;;;;;;;0.60;0.60;;;6.10;99.90;;;;;;5071624;28;20240;-53
2022/04/09 05:14:15;;;;;;;0.63;0.63;;;;;;;;;;5071542;28;20197;-54
2022/04/09 05:16:41;;;;;;;0.90;0.90;;;;;;;;;;5071651;28;20270;-51
2022/04/09 05:19:07;;;;;;;0.70;0.70;;;6.20;99.90;;;;;;5071856;28;20177;-49
2022/04/09 05:21:32;;;;;;;0.67;0.67;;;6.00;99.90;;;;;;5071474;28;20559;-48
2022/04/09 05:23:58;;;;;;;1.20;1.00;;;5.80;99.90;;;;;;5070994;28;20178;-48
2022/04/09 05:26:24;;;;;;;1.00;1.00;;;;;;;;;;5071555;28;20561;-54
2022/04/09 05:28:53;;;;;;;0.90;0.90;;;;;;;;;;5071797;28;20224;-52
2022/04/09 05:31:20;;;;;;;0.90;0.90;;;5.70;99.90;;;;;;5071573;28;20654;-50
2022/04/09 05:33:46;;;;;;;1.23;1.20;;;5.60;99.90;;;;;;5071328;28;20206;-47
2022/04/09 05:36:11;;;;;;;1.20;1.20;;;5.70;99.90;;;;;;5071593;28;20186;-47
2022/04/09 05:38:37;;;;;;;1.10;1.10;;;6.20;99.90;;;;;;5071594;28;20653;-49
2022/04/09 05:41:03;;;;;;;1.23;1.13;;;;;;;;;;5071434;28;20178;-51
2022/04/09 05:43:29;;;;;;;1.20;1.20;;;5.70;99.90;;;;;;5071005;28;20170;-47
2022/04/09 05:45:54;;;;;;;1.00;1.00;;;5.70;99.90;;;;;;5071624;28;20178;-50
2022/04/09 05:48:20;;;;;;;1.60;1.50;;;5.50;99.90;;;;;;5071394;28;20293;-49
2022/04/09 05:50:46;;;;;;;1.27;1.27;;;;;;;;;;5071520;28;20535;-48
2022/04/09 05:53:12;;;;;;;1.23;1.20;;;;;;;;;;5074055;28;20206;-51
2022/04/09 05:55:38;;;;;;;1.90;1.80;;;;;;;;;;5075467;28;20644;-55
2022/04/09 05:58:04;;;;;;;1.93;1.80;;;;;;;;;;5075489;28;20174;-47
2022/04/09 06:00:30;;;;;;;1.80;1.70;;;4.80;99.90;;;;;;5075236;28;20171;-48
2022/04/09 06:02:56;;;;;;;2.00;1.90;;;;;;;;;;5074933;28;20285;-52
2022/04/09 06:05:22;;;;;;;2.43;2.23;;;4.60;99.90;;;;;;5075174;28;20285;-50
2022/04/09 06:07:48;;;;;;;2.80;2.10;;;4.50;99.90;;;;;;5075199;28;20174;-47
2022/04/09 06:10:14;;;;;;;3.30;2.97;;;4.60;99.90;;;;;;5056939;28;20265;-48
2022/04/09 06:12:40;;;;;;;5.63;3.27;;;4.60;99.90;;;;;;5074717;28;20266;-49
2022/04/09 06:15:06;;;;;;;3.77;2.93;;;4.50;99.90;;;;;;5074744;28;20228;-48
2022/04/09 06:17:33;;;;;;;3.37;3.07;;;4.70;99.90;;;;;;5075007;28;20683;-49
2022/04/09 06:19:59;;;;;;;3.57;3.27;;;;;;;;;;5074746;28;20177;-50
2022/04/09 06:22:24;;;;;;;3.73;3.43;;;4.70;99.90;;;;;;5074481;28;20195;-47
2022/04/09 06:24:51;;;;;;;3.87;3.53;;;4.80;99.90;;;;;;5075052;28;20178;-52
2022/04/09 06:27:16;;;;;;;3.93;3.57;;;4.60;99.90;;;;;;5074591;28;20170;-46
2022/04/09 06:29:42;;;;;;;4.97;4.47;;;4.80;99.90;;;;;;5074851;28;20182;-52
2022/04/09 06:32:07;;;;;;;5.17;4.40;;;4.50;99.90;;;;;;5074367;28;20217;-52
2022/04/09 06:34:33;;;;;;;4.80;4.40;;;4.90;99.90;;;;;;5074377;28;20198;-47
2022/04/09 06:36:59;;;;;;;6.63;4.83;;;4.80;99.90;;;;;;5074466;28;20174;-52
2022/04/09 06:39:25;;;;;;;4.83;4.37;;;4.70;99.90;;;;;;5074685;28;20586;-50
2022/04/09 06:41:51;;;;;;;7.10;5.27;;;4.80;99.90;;;;;;5074309;28;20190;-52
2022/04/09 06:44:17;;;;;;;7.10;5.20;;;;;;;;;;5074276;28;20715;-51
2022/04/09 06:46:43;;;;;;;7.13;5.67;;;;;;;;;;5074455;28;20681;-51
2022/04/09 06:49:13;;;;;;;6.10;5.50;;;4.60;99.90;;;;;;5074156;28;20206;-51
2022/04/09 06:51:42;;;;;;;6.40;5.77;;;4.50;99.90;;;;;;5074319;28;20222;-51
2022/04/09 06:54:09;;;;;;;6.93;6.13;;;4.90;99.90;;;;;;5073746;28;20205;-50
2022/04/09 06:56:36;;;;;;;7.07;5.83;;;4.90;99.90;;;;;;5074375;28;20539;-50
2022/04/09 06:59:03;;;;;;;7.10;5.90;;;4.60;99.90;;;;;;5074061;28;20561;-47
2022/04/09 07:01:30;;;;;;;6.90;6.20;;;5.00;99.90;;;;;;5074109;28;20618;-49
2022/04/09 07:03:55;;;;;;;6.67;5.97;;;5.00;99.90;;;;;;5072571;28;20174;-47
2022/04/09 07:06:21;;;;;;;7.17;6.47;;;5.10;99.90;;;;;;5074233;28;20228;-50
2022/04/09 07:08:47;;;;;;;7.77;7.07;;;;;;;;;;5073941;28;20181;-52
2022/04/09 07:11:13;;;;;;;8.57;7.67;;;4.80;99.90;;;;;;5073956;28;20177;-47
2022/04/09 07:13:39;;;;;;;9.33;7.63;;;;;;;;;;5073295;28;20202;-50
2022/04/09 07:16:05;;;;;;;8.67;7.73;;;4.80;99.90;;;;;;5073471;28;20166;-54
2022/04/09 07:18:32;;;;;;;9.17;6.93;;;;;;;;;;5073930;28;20323;-52
2022/04/09 07:20:57;;;;;;;8.37;7.47;;;5.00;99.90;;;;;;5073737;28;20166;-52
2022/04/09 07:23:23;;;;;;;9.13;8.23;;;;;;;;;;5073394;28;20201;-51
2022/04/09 07:25:49;;;;;;;10.23;8.00;;;4.70;99.90;;;;;;5073569;28;20190;-51
2022/04/09 07:28:15;;;;;;;10.13;7.90;;;4.80;99.90;;;;;;5073765;28;20167;-51
2022/04/09 07:30:42;;;;;;;9.97;8.23;;;4.50;99.90;;;;;;5073357;28;20177;-51
2022/04/09 07:33:07;;;;;;;11.77;9.00;;;4.40;99.90;;;;;;5073068;28;20289;-49
2022/04/09 07:35:35;;;;;;;11.57;8.30;;;;;;;;;;5073621;28;20317;-52
2022/04/09 07:38:01;;;;;;;10.13;8.23;;;4.40;99.90;;;;;;5073422;28;20220;-49
2022/04/09 07:40:30;;;;;;;9.37;8.37;;;4.50;99.90;;;;;;5073480;28;20570;-52
2022/04/09 07:42:57;;;;;;;9.17;8.13;;;4.50;99.90;;;;;;5072926;28;20187;-51
2022/04/09 07:45:23;;;;;;;10.73;8.30;;;4.30;99.90;;;;;;5073361;28;20224;-49
2022/04/09 07:47:56;;;;;;;8.20;7.23;;;4.30;99.90;;;;;;5073098;28;20186;-48
2022/04/09 07:50:23;;;;;;;8.50;7.30;;;4.50;99.90;;;;;;5073385;28;20220;-49
2022/04/09 07:52:49;;;;;;;12.93;8.67;;;;;;;;;;5072398;28;20194;-53
2022/04/09 07:55:16;;;;;;;8.23;7.23;;;4.60;99.90;;;;;;5073220;28;20255;-52
2022/04/09 07:57:47;;;;;;;7.90;7.10;;;4.50;99.90;;;;;;5073022;28;20174;-52
2022/04/09 08:00:15;;;;;;;9.87;7.27;;;4.50;99.90;;;;;;5072960;28;20535;-47
2022/04/09 08:02:41;;;;;;;8.50;7.23;;;4.40;99.90;;;;;;5072519;28;20203;-51
2022/04/09 08:05:09;;;;;;;8.30;6.80;;;4.70;99.90;;;;;;5072869;28;20178;-50
2022/04/09 08:07:35;;;;;;;6.60;6.00;;;4.40;99.90;;;;;;5072930;28;20643;-50
2022/04/09 08:10:00;;;;;;;9.47;6.27;;;4.80;99.90;;;;;;5072676;28;20190;-50
2022/04/09 08:12:26;;;;;;;8.40;6.50;;;;;;;;;;5072397;28;20198;-50
2022/04/09 08:14:52;;;;;;;7.67;6.10;;;4.90;99.90;;;;;;5072411;28;20209;-48
2022/04/09 08:17:20;;;;;;;7.73;6.17;;;4.70;99.90;;;;;;5072784;28;20167;-51
2022/04/09 08:19:46;;;;;;;7.77;6.13;;;4.80;99.90;;;;;;5072429;28;20162;-49
2022/04/09 08:22:13;;;;;;;8.33;6.00;;;4.80;99.90;;;;;;5072371;28;20194;-48
2022/04/09 08:24:40;;;;;;;8.73;6.00;;;4.90;99.90;;;;;;5072237;28;20170;-47
2022/04/09 08:27:09;;;;;;;6.70;5.50;;;4.80;99.90;;;;;;5072475;28;20171;-52
2022/04/09 08:29:35;;;;;;;5.97;4.73;;;5.30;99.90;;;;;;5072501;28;20201;-51
2022/04/09 08:32:01;;;;;;;6.20;5.03;;;;;;;;;;5071886;28;20241;-51
2022/04/09 08:34:29;;;;;;;6.30;5.40;;;;;;;;;;5072062;28;20305;-49
2022/04/09 08:36:55;;;;;;;8.17;5.07;;;5.50;99.90;;;;;;5072102;28;20208;-50
2022/04/09 08:39:21;;;;;;;7.73;4.97;;;5.50;99.90;;;;;;5072352;28;20242;-50
2022/04/09 08:41:48;;;;;;;5.83;4.67;;;5.60;99.90;;;;;;5072042;28;20250;-52
2022/04/09 08:44:14;;;;;;;5.83;4.67;;;5.70;99.90;;;;;;5072035;28;20677;-49
2022/04/09 08:46:40;;;;;;;5.03;4.17;;;6.20;99.90;;;;;;5071943;28;20171;-48
2022/04/09 08:49:06;;;;;;;4.47;3.90;;;5.90;99.90;;;;;;5072316;28;20610;-49
2022/04/09 08:51:32;;;;;;;5.90;4.70;;;5.80;99.90;;;;;;5071755;28;20202;-50
2022/04/09 08:54:00;;;;;;;5.47;4.43;;;5.40;99.90;;;;;;5071797;28;20190;-51
2022/04/09 08:56:26;;;;;;;5.40;4.37;;;5.50;99.90;;;;;;5072043;28;20237;-47
2022/04/09 08:58:52;;;;;;;4.87;4.30;;;5.80;99.90;;;;;;5071908;28;20174;-49
2022/04/09 09:01:21;;;;;;;5.30;4.20;;;5.90;99.90;;;;;;5071929;28;20170;-49
2022/04/09 09:03:46;;;;;;;4.93;4.07;;;6.10;99.90;;;;;;5071540;28;20166;-48
2022/04/09 09:06:35;;;;;;;4.43;3.70;;;6.80;99.90;;;;;;5070688;28;20177;-49
2022/04/09 09:09:03;;;;;;;4.87;3.83;;;6.70;99.90;;;;;;5071811;28;20170;-48
2022/04/09 09:11:29;;;;;;;8.93;4.23;;;6.60;99.90;;;;;;5071816;28;20237;-51
2022/04/09 09:14:00;;;;;;;4.60;3.80;;;6.70;99.90;;;;;;5071287;28;20209;-49
2022/04/09 09:16:29;;;;;;;4.27;3.70;;;6.80;99.90;;;;;;5071921;28;20255;-51
2022/04/09 09:18:57;;;;;;;3.90;3.50;;;6.50;99.90;;;;;;5071756;28;20184;-51
2022/04/09 09:21:27;;;;;;;3.70;2.90;;;6.20;99.90;;;;;;5071588;28;20174;-52
2022/04/09 09:24:13;;;;;;;4.20;3.47;;;5.80;99.90;;;;;;5071245;28;20170;-53
2022/04/09 09:26:39;;;;;;;4.00;3.60;;;;;;;;;;5071342;28;20167;-51
2022/04/09 09:29:08;;;;;;;3.90;3.30;;;6.10;99.90;;;;;;5071744;28;20603;-53
2022/04/09 09:34:15;;;;;;;5.23;3.50;;;6.30;99.90;;;;;;5106268;22;20663;-53
2022/04/09 09:36:43;;;;;;;5.60;3.10;;;6.20;99.90;;;;;;5071130;28;20166;-48
2022/04/09 09:39:10;;;;;;;10.03;7.37;;;6.40;99.90;;;;;;5071646;28;20177;-51
2022/04/09 09:41:55;;;;;;;4.27;3.07;;;6.50;99.90;;;;;;5071417;28;20573;-56
2022/04/09 09:44:25;;;;;;;5.20;3.07;;;6.40;99.90;;;;;;5051294;28;20167;-50
2022/04/09 09:46:53;;;;;;;4.50;2.70;;;6.20;99.90;;;;;;5051385;28;20199;-54
2022/04/09 09:49:22;;;;;;;4.20;2.90;;;6.30;99.90;;;;;;5051656;28;20185;-53
2022/04/09 09:52:08;;;;;;;4.43;4.03;;;6.00;99.90;;;;;;5051108;28;20254;-50
2022/04/09 09:54:53;;;;;;;3.83;3.00;;;6.20;99.90;;;;;;5051206;28;20260;-51
2022/04/09 09:57:20;;;;;;;5.37;2.90;;;5.90;99.90;;;;;;5051470;28;20262;-50
2022/04/09 09:59:46;;;;;;;4.27;2.80;;;5.80;99.90;;;;;;5051417;28;20246;-52
2022/04/09 10:02:17;;;;;;;3.70;2.90;;;5.70;99.90;;;;;;5051116;28;20191;-50
2022/04/09 10:04:43;;;;;;;4.10;2.93;;;;;;;;;;5051415;28;20665;-50
2022/04/09 10:07:10;;;;;;;7.43;3.53;;;5.90;99.90;;;;;;5051134;28;20680;-52
2022/04/09 10:09:36;;;;;;;5.33;2.77;;;;;;;;;;5051326;28;20171;-54
2022/04/09 10:12:05;;;;;;;15.07;10.47;;;;;;;;;;5051098;28;20191;-52
2022/04/09 10:14:32;;;;;;;4.57;3.00;;;6.90;99.90;;;;;;5050752;28;20210;-51
2022/04/09 10:17:00;;;;;;;5.83;2.90;;;6.80;99.90;;;;;;5051214;28;20214;-52
2022/04/09 10:19:26;;;;;;;4.17;2.70;;;6.40;99.90;;;;;;5050990;28;20625;-51
2022/04/09 10:21:53;;;;;;;3.20;2.43;;;6.40;99.90;;;;;;5050985;28;20198;-54
2022/04/09 10:24:25;;;;;;;2.80;2.43;;;6.70;99.90;;;;;;5050802;28;20210;-54
2022/04/09 10:26:54;;;;;;;3.73;2.60;;;;;;;;;;5051192;28;20171;-51
2022/04/09 10:29:20;;;;;;;3.77;2.53;;;6.60;99.90;;;;;;5051014;28;20262;-52
2022/04/09 10:31:53;;;;;;;3.80;2.50;;;6.90;99.90;;;;;;5050991;28;20258;-51
2022/04/09 10:34:20;;;;;;;4.57;2.83;;;6.40;99.90;;;;;;5050551;28;20595;-51
2022/04/09 10:36:45;;;;;;;2.77;2.13;;;6.50;99.90;;;;;;5051269;28;20529;-51
2022/04/09 10:39:40;;;;;;;3.87;2.47;;;6.90;99.90;;;;;;5052241;28;20187;-51
2022/04/09 10:42:10;;;;;;;3.77;2.43;;;6.80;99.90;;;;;;5054388;28;20281;-52
2022/04/09 10:44:44;;;;;;;3.47;2.67;;;6.80;99.90;;;;;;5053967;28;20226;-52
2022/04/09 10:47:14;;;;;;;4.57;2.33;;;6.60;99.90;;;;;;5054590;28;20607;-53
2022/04/09 10:49:41;;;;;;;3.30;2.17;;;6.80;99.90;;;;;;5054450;28;20187;-51
2022/04/09 10:52:11;;;;;;;4.00;2.17;;;6.70;99.90;;;;;;5054049;28;20195;-49
2022/04/09 10:54:37;;;;;;;2.47;2.27;;;7.10;99.90;;;;;;5054089;28;20198;-50
2022/04/09 10:57:23;;;;;;;3.47;2.30;;;6.80;99.90;;;;;;5054157;28;20171;-50
2022/04/09 10:59:56;;;;;;;3.93;2.47;;;7.00;99.90;;;;;;5054276;28;20174;-49
2022/04/09 11:02:23;;;;;;;3.80;2.20;;;6.90;99.90;;;;;;5053681;28;20233;-50
2022/04/09 11:04:48;;;;;;;3.63;2.27;;;7.10;99.90;;;;;;5054166;28;20171;-50
2022/04/09 11:07:15;;;;;;;3.90;2.20;;;7.80;99.90;;;;;;5053981;28;20190;-50
2022/04/09 11:09:41;;;;;;;3.13;2.43;;;7.40;99.90;;;;;;5054139;28;20179;-50
2022/04/09 11:12:06;;;;;;;4.13;2.13;;;7.40;99.90;;;;;;5051969;28;20203;-50
2022/04/09 11:14:43;;;;;;;3.53;2.57;;;8.00;99.90;;;;;;5053586;28;20203;-50
2022/04/09 11:17:19;;;;;;;4.93;2.50;;;7.40;99.90;;;;;;5053705;28;20220;-54
2022/04/09 11:19:47;;;;;;;5.37;2.50;;;7.70;99.90;;;;;;5053355;28;20175;-52
2022/04/09 11:22:12;;;;;;;2.37;2.10;;;8.20;99.90;;;;;;5052679;28;20194;-51
2022/04/09 11:24:38;;;;;;;3.20;2.10;;;8.70;99.90;;;;;;5053274;28;20175;-52
2022/04/09 11:27:05;;;;;;;3.20;2.60;;;9.20;99.90;;;;;;5035796;28;20183;-52
2022/04/09 11:29:39;;;;;;;3.50;2.10;;;9.80;99.90;;;;;;5053488;28;20221;-51
2022/04/09 11:32:05;;;;;;;3.20;2.27;;;9.70;99.90;;;;;;5052883;28;20194;-52
2022/04/09 11:34:49;;;;;;;3.37;2.37;;;9.80;99.90;;;;;;5052716;28;20749;-50
2022/04/09 11:37:15;;;;;;;3.37;2.23;;;10.00;99.90;;;;;;5053487;28;20173;-48
2022/04/09 11:39:41;;;;;;;3.80;2.10;;;10.00;99.90;;;;;;5053396;28;20175;-48
2022/04/09 11:42:08;;;;;;;3.17;1.90;;;9.90;99.90;;;;;;5053091;28;20591;-50
2022/04/09 11:44:35;;;;;;;4.80;2.17;;;9.80;99.90;;;;;;5052812;28;20774;-49
2022/04/09 11:47:16;;;;;;;3.17;2.37;;;9.40;99.90;;;;;;5053302;28;20171;-49
2022/04/09 11:49:43;;;;;;;2.53;2.33;;;9.30;99.90;;;;;;5052717;28;20181;-48
2022/04/09 11:52:09;;;;;;;3.07;2.23;;;9.10;99.90;;;;;;5052564;28;20198;-48
2022/04/09 11:54:38;;;;;;;3.60;2.40;;;9.40;99.90;;;;;;5052589;28;20195;-48
2022/04/09 11:57:09;;;;;;;5.20;3.50;;;9.30;99.90;;;;;;5053098;28;20217;-50
2022/04/09 11:59:36;;;;;;;3.87;2.40;;;9.10;99.90;;;;;;5053096;28;20692;-51
2022/04/09 12:02:01;;;;;;;4.70;2.50;;;8.80;99.90;;;;;;5052440;28;20199;-50
2022/04/09 12:04:34;;;;;;;3.87;2.53;;;8.80;99.90;;;;;;5034935;28;20179;-52
2022/04/09 12:07:02;;;;;;;4.87;2.57;;;8.80;99.90;;;;;;5052853;28;20660;-50
2022/04/09 12:09:29;;;;;;;3.73;2.70;;;8.60;99.90;;;;;;5053016;28;20175;-48
2022/04/09 12:11:55;;;;;;;3.93;2.50;;;9.20;99.90;;;;;;5052257;28;20179;-49
2022/04/09 12:14:20;;;;;;;4.50;2.50;;;9.10;99.90;;;;;;5051817;28;20195;-52
2022/04/09 12:16:49;;;;;;;4.37;2.83;;;9.60;99.90;;;;;;5052530;28;20170;-51
2022/04/09 12:19:14;;;;;;;3.80;3.03;;;9.90;99.90;;;;;;5052750;28;20171;-48
2022/04/09 12:21:41;;;;;;;4.50;2.93;;;;;;;;;;5052369;28;20822;-48
2022/04/09 12:24:12;;;;;;;5.70;3.37;;;9.80;99.90;;;;;;5052309;28;20175;-48
2022/04/09 12:26:43;;;;;;;4.87;3.23;;;9.50;99.90;;;;;;5052586;28;20229;-46
2022/04/09 12:29:22;;;;;;;4.00;3.00;;;9.00;99.90;;;;;;5052386;28;20178;-52
2022/04/09 12:31:51;;;;;;;5.77;3.10;;;9.50;99.90;;;;;;5051877;28;20182;-49
2022/04/09 12:34:17;;;;;;;4.47;2.87;;;9.20;99.90;;;;;;5051694;28;20233;-48
2022/04/09 12:37:02;;;;;;;5.07;3.00;;;9.30;99.90;;;;;;5052074;28;20167;-48
2022/04/09 12:39:29;;;;;;;3.37;2.70;;;9.10;99.90;;;;;;5051854;28;20171;-53
2022/04/09 12:41:55;;;;;;;3.30;2.40;;;9.40;99.90;;;;;;5051574;28;20179;-50
2022/04/09 12:44:25;;;;;;;4.70;2.47;;;9.20;99.90;;;;;;5034014;28;20537;-50
2022/04/09 12:46:52;;;;;;;2.63;2.43;;;9.40;99.90;;;;;;5052235;28;20225;-49
2022/04/09 12:49:17;;;;;;;3.73;2.50;;;9.00;99.90;;;;;;5034196;28;20245;-51
2022/04/09 12:51:43;;;;;;;2.57;2.00;;;9.20;99.90;;;;;;5051815;28;20213;-48
2022/04/09 12:54:08;;;;;;;3.87;2.50;;;9.30;99.90;;;;;;5051570;28;20210;-48
2022/04/09 12:56:36;;;;;;;3.03;2.20;;;10.00;99.90;;;;;;5052163;28;20186;-50
2022/04/09 12:59:02;;;;;;;3.00;1.97;;;10.30;99.90;;;;;;5051821;28;20178;-51
2022/04/09 13:01:28;;;;;;;3.33;1.90;;;10.50;99.90;;;;;;5051181;28;20171;-49
2022/04/09 13:03:54;;;;;;;6.23;2.33;;;10.30;99.90;;;;;;5051647;28;20206;-48
2022/04/09 13:06:20;;;;;;;2.63;2.00;;;9.90;99.90;;;;;;5051467;28;20174;-50
2022/04/09 13:08:46;;;;;;;17.70;15.80;;;9.60;99.90;;;;;;5051897;28;20182;-50
2022/04/09 13:11:14;;;;;;;9.10;7.23;;;9.50;99.90;;;;;;5051722;28;20171;-49
2022/04/09 13:13:41;;;;;;;5.37;3.13;;;9.70;99.90;;;;;;5051321;28;20203;-48
2022/04/09 13:16:07;;;;;;;5.07;3.00;;;10.00;99.90;;;;;;5051575;28;20182;-50
2022/04/09 13:18:32;;;;;;;2.07;1.80;;;10.30;99.80;;;;;;5051830;28;20175;-48
2022/04/09 13:20:58;;;;;;;3.40;1.83;;;10.60;97.90;;;;;;5051585;28;20184;-49
2022/04/09 13:23:23;;;;;;;2.03;1.47;;;10.80;99.00;;;;;;5051383;28;20202;-49
2022/04/09 13:25:51;;;;;;;4.53;1.73;;;11.00;99.10;;;;;;5051860;28;20276;-49